MMNL

Quetzalcóatl International Airport

Airport
ICAO code
MMNL
IATA Code
NLD
Summary
ICAO Region
CARSAM
ICAO Territory
Location

Nuevo Laredo, Tamaulipas

Serving
Nuevo Laredo
Elevation
484 ft
Coordinates
27° 26' 38" N , 99° 34' 14" W
KCC
Metar
MMNL 221940Z 10006G18KT 7SM SKC 38/20 A2969 RMK HZY ISOL SC

Quetzalcóatl International Airport is an international airport located in Nuevo Laredo, Tamaulipas, Mexico.

Climatology

Semi-arid Climate (Köppen climate classification BSh)

Runways

Designator Length Width Surface Rops
14/32 2000 45 ASP Yes/Yes

Airport map

Aerial View

SKYbrary Partners:

Safety knowledge contributed by: